Chinle, AZ

8:51 PM MST on December 22, 2014 (GMT -0700)
Window Rock | Change Station
CLOSE
Current Station
Airport
Location: Window Rock,
Elevation: 6742 ft
Nearby Weather Stations

Elev 6742 ft 35.66 °N, 109.06 °W | Updated 58 minutes ago

Mostly Cloudy
Mostly Cloudy
39 °F
Feels Like 34 °F
N
7
Wind Variable Wind from NNW

Today
High -- | Low -- °F
--% Chance of Precip.
Yesterday
High -- | Low -- °F
Precip. -- in
7:25 AM 5:07 PM
New Moon, 2% visible
Pressure 29.82 in
Visibility 10.0 miles
Clouds Few 2700 ft
Mostly Cloudy 4700 ft
Overcast 7000 ft
Windchill 34 °F
Dew Point 32 °F
Humidity 76%
Rainfall 0.01 in
Snow Depth Not available.
UV 0 out of 12
Pollen 2.90 out of 12
Air Quality Not available.
Flu Activity Not available.
METAR KRQE 230253Z AUTO 33006KT 10SM -RA FEW027 BKN047 OVC070 04/00 A2989 RMK AO2 RAB42 SLP098 P0000 60000 T00390000 55005 TSNO

More Conditions Fewer Conditions

Pressure 29.82 in
Visibility 10.0 miles
Clouds Few 2700 ft
Mostly Cloudy 4700 ft
Overcast 7000 ft
Windchill 34 °F
Dew Point 32 °F
Humidity 76%
Rainfall 0.01 in
Snow Depth Not available.
UV 0 out of 12
Pollen 2.90 out of 12
Air Quality Not available.
Flu Activity Not available.
METAR KRQE 230253Z AUTO 33006KT 10SM -RA FEW027 BKN047 OVC070 04/00 A2989 RMK AO2 RAB42 SLP098 P0000 60000 T00390000 55005 TSNO

More Conditions Fewer Conditions

10-Day Weather Forecast

Almanac

Astronomy

Dec. 22, 2014 Rise Set
Actual Time
Civil Twilight
Nautical Twilight
Astronomical Twilight
Moon
Length of Visible Light
Length of Day
Tomorrow will be .
, % of the Moon is Illuminated

Today's Extremes

State Highs State Lows

Community

WunderPhotos

Upload Photos

1,779,764 photos uploaded!

WunderBlogs® & News

Nearby

Air Quality

  Air Quality AQ Index Pollutant
Not available.

Snow Depth

Station Depth Elevation

Earthquake Activity

City Distance Mag. Time & Date
Minimum magnitude displayed is 2.5.

Coastal Water Temperatures

Place Temperature

Nearby Weather Stations